createdAt,value
2023-03-27T00:01:13.279Z,11.83
2023-03-27T00:03:40.964Z,11.80
2023-03-27T00:06:16.723Z,11.78
2023-03-27T00:08:46.439Z,11.75
2023-03-27T00:11:14.567Z,11.72
2023-03-27T00:13:49.032Z,11.70
2023-03-27T00:16:21.829Z,11.67
2023-03-27T00:18:49.117Z,11.63
2023-03-27T00:21:16.478Z,11.59
2023-03-27T00:23:43.303Z,11.58
2023-03-27T00:26:12.084Z,11.56
2023-03-27T00:28:39.203Z,11.57
2023-03-27T00:31:10.843Z,11.56
2023-03-27T00:33:37.681Z,11.57
2023-03-27T00:36:04.798Z,11.57
2023-03-27T00:38:32.320Z,11.54
2023-03-27T00:41:00.012Z,11.51
2023-03-27T00:43:34.784Z,11.46
2023-03-27T00:46:43.528Z,11.49
2023-03-27T00:49:13.611Z,11.46
2023-03-27T00:51:42.676Z,11.45
2023-03-27T00:54:10.044Z,11.44
2023-03-27T00:56:38.778Z,11.41
2023-03-27T00:59:16.257Z,11.40
2023-03-27T01:01:44.717Z,11.41
2023-03-27T01:04:11.947Z,11.37
2023-03-27T01:06:39.857Z,11.37
2023-03-27T01:09:06.572Z,11.40
2023-03-27T01:11:50.038Z,11.34
2023-03-27T01:14:35.287Z,11.35
2023-03-27T01:17:34.818Z,11.36
2023-03-27T01:20:20.951Z,11.33
2023-03-27T01:22:59.717Z,11.31
2023-03-27T01:25:37.873Z,11.31
2023-03-27T01:28:10.971Z,11.26
2023-03-27T01:30:46.600Z,11.25
2023-03-27T01:33:42.856Z,11.24
2023-03-27T01:36:25.029Z,11.23
2023-03-27T01:39:35.886Z,11.21
2023-03-27T01:42:08.822Z,11.19
2023-03-27T01:44:48.459Z,11.18
2023-03-27T01:47:37.792Z,11.19
2023-03-27T01:50:15.327Z,11.14
2023-03-27T01:52:47.755Z,11.15
2023-03-27T01:55:19.544Z,11.14
2023-03-27T01:57:54.321Z,11.14
2023-03-27T02:00:24.266Z,11.11
2023-03-27T02:03:16.595Z,11.07
2023-03-27T02:05:52.898Z,11.06
2023-03-27T02:08:39.763Z,11.02
2023-03-27T02:11:06.935Z,10.99
2023-03-27T02:13:51.570Z,10.96
2023-03-27T02:16:26.759Z,10.96
2023-03-27T02:19:01.757Z,10.99
2023-03-27T02:21:31.355Z,10.98
2023-03-27T02:24:01.970Z,10.96
2023-03-27T02:26:30.420Z,10.92
2023-03-27T02:29:21.838Z,10.84
2023-03-27T02:32:24.192Z,10.83
2023-03-27T02:34:54.112Z,10.80
2023-03-27T02:37:21.509Z,10.77
2023-03-27T02:39:50.792Z,10.72
2023-03-27T02:42:23.374Z,10.71
2023-03-27T02:45:15.738Z,10.71
2023-03-27T02:47:57.182Z,10.71
2023-03-27T02:50:46.657Z,10.68
2023-03-27T02:53:17.863Z,10.67
2023-03-27T02:55:50.596Z,10.67
2023-03-27T02:58:24.762Z,10.68
2023-03-27T03:00:52.214Z,10.64
2023-03-27T03:03:32.149Z,10.65
2023-03-27T03:05:59.743Z,10.67
2023-03-27T03:08:30.389Z,10.64
2023-03-27T03:11:03.439Z,10.62
2023-03-27T03:13:30.312Z,10.58
2023-03-27T03:15:57.664Z,10.61
2023-03-27T03:18:25.176Z,10.57
2023-03-27T03:20:55.578Z,10.61
2023-03-27T03:23:23.508Z,10.59
2023-03-27T03:25:52.747Z,10.59
2023-03-27T03:28:19.753Z,10.56
2023-03-27T03:30:50.383Z,10.53
2023-03-27T03:33:18.301Z,10.53
2023-03-27T03:35:49.686Z,10.47
2023-03-27T03:38:26.592Z,10.44
2023-03-27T03:40:55.409Z,10.45
2023-03-27T03:43:24.435Z,10.44
2023-03-27T03:45:51.298Z,10.39
2023-03-27T03:48:19.332Z,10.34
2023-03-27T03:50:47.350Z,10.33
2023-03-27T03:53:19.387Z,10.30
2023-03-27T03:55:46.555Z,10.30
2023-03-27T03:58:13.589Z,10.30
2023-03-27T04:00:40.366Z,10.27
2023-03-27T04:03:08.998Z,10.29
2023-03-27T04:05:37.530Z,10.26
2023-03-27T04:08:08.648Z,10.24
2023-03-27T04:10:38.702Z,10.24
2023-03-27T04:13:06.692Z,10.26
2023-03-27T04:15:33.742Z,10.21
2023-03-27T04:18:01.260Z,10.21
2023-03-27T04:20:28.590Z,10.20
2023-03-27T04:22:55.831Z,10.16
2023-03-27T04:25:24.493Z,10.16
2023-03-27T04:27:52.076Z,10.15
2023-03-27T04:30:22.410Z,10.13
2023-03-27T04:32:51.368Z,10.08
2023-03-27T04:35:20.107Z,10.12
2023-03-27T04:37:48.349Z,10.13
2023-03-27T04:40:19.529Z,10.11
2023-03-27T04:42:46.413Z,10.08
2023-03-27T04:45:17.309Z,10.05
2023-03-27T04:47:44.479Z,10.09
2023-03-27T04:50:11.730Z,10.07
2023-03-27T04:52:38.658Z,10.08
2023-03-27T04:55:06.213Z,10.08
2023-03-27T04:57:33.767Z,10.07
2023-03-27T05:00:01.974Z,10.08
2023-03-27T05:02:28.860Z,10.05
2023-03-27T05:04:58.678Z,10.05
2023-03-27T05:07:26.669Z,10.07
2023-03-27T05:09:53.517Z,10.04
2023-03-27T05:12:21.430Z,10.03
2023-03-27T05:14:48.695Z,10.05
2023-03-27T05:17:16.620Z,9.98
2023-03-27T05:19:44.835Z,9.98
2023-03-27T05:22:13.910Z,9.97
2023-03-27T05:24:40.748Z,9.95
2023-03-27T05:27:07.546Z,9.97
2023-03-27T05:29:47.472Z,9.98
2023-03-27T05:32:14.820Z,10.01
2023-03-27T05:34:42.432Z,10.00
2023-03-27T05:37:09.427Z,9.99
2023-03-27T05:39:36.983Z,10.00
2023-03-27T05:42:04.160Z,10.00
2023-03-27T05:44:31.292Z,9.98
2023-03-27T05:46:58.988Z,9.98
2023-03-27T05:49:25.746Z,10.02
2023-03-27T05:51:52.769Z,10.02
2023-03-27T05:54:19.659Z,10.01
2023-03-27T05:56:46.661Z,10.00
2023-03-27T05:59:13.455Z,10.04
2023-03-27T06:01:40.454Z,10.04
2023-03-27T06:04:09.304Z,10.07
2023-03-27T06:06:36.625Z,10.05
2023-03-27T06:09:03.917Z,10.05
2023-03-27T06:11:30.881Z,10.05
2023-03-27T06:13:58.750Z,10.07
2023-03-27T06:16:26.107Z,10.08
2023-03-27T06:18:53.199Z,10.06
2023-03-27T06:21:21.016Z,10.08
2023-03-27T06:23:47.923Z,10.06
2023-03-27T06:26:15.627Z,10.10
2023-03-27T06:28:42.672Z,10.06
2023-03-27T06:31:09.539Z,9.99
2023-03-27T06:33:36.361Z,10.03
2023-03-27T06:36:03.278Z,10.04
2023-03-27T06:38:32.781Z,10.03
2023-03-27T06:41:00.151Z,10.04
2023-03-27T06:43:27.028Z,10.00
2023-03-27T06:45:54.246Z,10.01
2023-03-27T06:48:22.585Z,10.03
2023-03-27T06:50:52.380Z,10.06
2023-03-27T06:53:27.434Z,10.10
2023-03-27T06:55:56.643Z,10.10
2023-03-27T06:58:23.981Z,10.03
2023-03-27T07:00:51.366Z,9.98
2023-03-27T07:03:21.613Z,10.04
2023-03-27T07:05:49.677Z,10.01
2023-03-27T07:08:24.470Z,10.02
2023-03-27T07:11:07.984Z,10.02
2023-03-27T07:13:38.512Z,10.04
2023-03-27T07:16:05.941Z,10.05
2023-03-27T07:18:32.813Z,10.07
2023-03-27T07:21:00.146Z,10.11
2023-03-27T07:23:27.095Z,10.13
2023-03-27T07:26:00.513Z,10.08
2023-03-27T07:28:27.365Z,10.06
2023-03-27T07:30:54.176Z,10.07
2023-03-27T07:33:21.688Z,10.08
2023-03-27T07:35:48.790Z,10.05
2023-03-27T07:38:16.741Z,10.10
2023-03-27T07:40:46.178Z,10.16
2023-03-27T07:43:13.822Z,10.12
2023-03-27T07:45:42.098Z,10.16
2023-03-27T07:48:12.079Z,10.12
2023-03-27T07:50:39.166Z,10.19
2023-03-27T07:53:06.559Z,10.24
2023-03-27T07:55:34.547Z,10.22
2023-03-27T07:58:03.351Z,10.12
2023-03-27T08:00:31.553Z,10.20
2023-03-27T08:03:10.098Z,10.25
2023-03-27T08:05:37.945Z,10.32
2023-03-27T08:08:05.548Z,10.34
2023-03-27T08:10:32.716Z,10.31
2023-03-27T08:12:59.589Z,10.40
2023-03-27T08:15:26.528Z,10.32
2023-03-27T08:17:55.457Z,10.33
2023-03-27T08:20:24.095Z,10.41
2023-03-27T08:22:52.799Z,10.51
2023-03-27T08:25:22.630Z,10.52
2023-03-27T08:27:49.942Z,10.50
2023-03-27T08:30:17.490Z,10.60
2023-03-27T08:32:44.926Z,10.57
2023-03-27T08:35:12.400Z,10.57
2023-03-27T08:37:39.860Z,10.58
2023-03-27T08:40:13.897Z,10.60
2023-03-27T08:42:44.021Z,10.70
2023-03-27T08:45:24.863Z,10.72
2023-03-27T08:48:07.314Z,10.68
2023-03-27T08:50:56.867Z,10.73
2023-03-27T08:53:46.270Z,10.78
2023-03-27T08:56:15.123Z,10.83
2023-03-27T08:58:43.792Z,10.87
2023-03-27T09:01:26.501Z,10.89
2023-03-27T09:04:03.054Z,10.83
2023-03-27T09:06:39.768Z,10.85
2023-03-27T09:09:31.361Z,10.96
2023-03-27T09:13:04.312Z,11.00
2023-03-27T09:15:42.245Z,11.09
2023-03-27T09:18:33.336Z,11.01
2023-03-27T09:21:14.608Z,11.03
2023-03-27T09:23:46.825Z,11.06
2023-03-27T09:26:30.683Z,11.09
2023-03-27T09:29:02.948Z,11.09
2023-03-27T09:31:32.496Z,11.13
2023-03-27T09:34:08.158Z,11.19
2023-03-27T09:36:38.755Z,11.26
2023-03-27T09:39:08.283Z,11.23
2023-03-27T09:41:47.843Z,11.28
2023-03-27T09:44:33.345Z,11.34
2023-03-27T09:47:37.617Z,11.31
2023-03-27T09:50:21.074Z,11.33
2023-03-27T09:52:47.961Z,11.29
2023-03-27T09:55:31.734Z,11.34
2023-03-27T09:58:10.461Z,11.45
2023-03-27T10:00:37.322Z,11.37
2023-03-27T10:03:08.178Z,11.35
2023-03-27T10:05:35.285Z,11.39
2023-03-27T10:08:30.356Z,11.30
2023-03-27T10:10:59.101Z,11.35
2023-03-27T10:13:29.784Z,11.41
2023-03-27T10:16:04.584Z,11.38
2023-03-27T10:18:34.515Z,11.42
2023-03-27T10:21:07.554Z,11.36
2023-03-27T10:23:48.841Z,11.37
2023-03-27T10:26:26.034Z,11.41
2023-03-27T10:28:58.484Z,11.43
2023-03-27T10:31:33.939Z,11.38
2023-03-27T10:34:03.453Z,11.35
2023-03-27T10:36:38.481Z,11.36
2023-03-27T10:39:14.716Z,11.36
2023-03-27T10:41:41.797Z,11.25
2023-03-27T10:44:19.278Z,11.20
2023-03-27T10:46:46.713Z,11.24
2023-03-27T10:49:43.785Z,11.14
2023-03-27T10:52:15.161Z,11.12
2023-03-27T10:55:27.219Z,11.14
2023-03-27T10:57:59.460Z,11.11
2023-03-27T11:00:41.068Z,10.98
2023-03-27T11:03:27.519Z,10.96
2023-03-27T11:05:54.594Z,11.00
2023-03-27T11:08:51.451Z,10.87
2023-03-27T11:11:34.248Z,10.77
2023-03-27T11:14:05.438Z,10.71
2023-03-27T11:17:04.246Z,10.69
2023-03-27T11:19:40.614Z,10.56
2023-03-27T11:22:17.202Z,10.63
2023-03-27T11:24:54.586Z,10.56
2023-03-27T11:27:33.807Z,10.52
2023-03-27T11:30:13.117Z,10.47
2023-03-27T11:32:57.073Z,10.39
2023-03-27T11:35:27.761Z,10.39
2023-03-27T11:38:31.602Z,10.35
2023-03-27T11:40:59.119Z,10.34
2023-03-27T11:43:26.169Z,10.29
2023-03-27T11:46:22.788Z,10.21
2023-03-27T11:48:56.875Z,10.21
2023-03-27T11:51:57.573Z,10.17
2023-03-27T11:54:44.540Z,10.25
2023-03-27T11:57:27.053Z,10.18
2023-03-27T12:00:11.241Z,10.14
2023-03-27T12:02:41.036Z,10.05
2023-03-27T12:05:17.147Z,10.03
2023-03-27T12:07:48.205Z,10.01
2023-03-27T12:10:28.952Z,9.96
2023-03-27T12:13:21.562Z,9.89
2023-03-27T12:16:06.508Z,9.97
2023-03-27T12:19:00.910Z,10.00
2023-03-27T12:22:23.464Z,9.91
2023-03-27T12:25:28.750Z,9.96
2023-03-27T12:28:22.506Z,9.97
2023-03-27T12:31:09.638Z,9.97
2023-03-27T12:33:39.256Z,9.99
2023-03-27T12:36:13.654Z,10.00
2023-03-27T12:38:43.009Z,9.97
2023-03-27T12:41:13.864Z,9.81
2023-03-27T12:43:46.242Z,9.90
2023-03-27T12:46:25.412Z,9.85
2023-03-27T12:48:52.856Z,9.74
2023-03-27T12:51:20.544Z,9.67
2023-03-27T12:53:50.391Z,9.64
2023-03-27T12:56:17.091Z,9.65
2023-03-27T12:58:53.150Z,9.60
2023-03-27T13:01:36.316Z,9.59
2023-03-27T13:04:49.900Z,9.61
2023-03-27T13:07:25.652Z,9.74
2023-03-27T13:10:38.632Z,9.64
2023-03-27T13:13:42.999Z,9.58
2023-03-27T13:16:34.535Z,9.51
2023-03-27T13:19:09.880Z,9.56
2023-03-27T13:21:51.917Z,9.50
2023-03-27T13:24:28.340Z,9.49
2023-03-27T13:27:07.866Z,9.57
2023-03-27T13:29:35.836Z,9.48
2023-03-27T13:32:06.144Z,9.50
2023-03-27T13:34:41.701Z,9.42
2023-03-27T13:37:14.121Z,9.45
2023-03-27T13:39:48.246Z,9.44
2023-03-27T13:42:20.862Z,9.38
2023-03-27T13:44:58.213Z,9.42
2023-03-27T13:47:34.063Z,9.44
2023-03-27T13:50:18.996Z,9.40
2023-03-27T13:53:23.902Z,9.37
2023-03-27T13:55:59.645Z,9.43
2023-03-27T13:58:29.365Z,9.46
2023-03-27T14:01:02.233Z,9.58
2023-03-27T14:03:49.031Z,9.58
2023-03-27T14:06:41.848Z,9.47
2023-03-27T14:09:46.282Z,9.50
2023-03-27T14:12:38.142Z,9.51
2023-03-27T14:15:44.414Z,9.43
2023-03-27T14:18:17.034Z,9.37
2023-03-27T14:20:45.917Z,9.35
2023-03-27T14:23:23.409Z,9.38
2023-03-27T14:26:01.944Z,9.46
2023-03-27T14:28:45.728Z,9.42
2023-03-27T14:31:19.342Z,9.42
2023-03-27T14:34:09.755Z,9.45
2023-03-27T14:36:42.103Z,9.50
2023-03-27T14:39:18.217Z,9.45
2023-03-27T14:41:56.292Z,9.49
2023-03-27T14:44:29.746Z,9.44
2023-03-27T14:47:03.921Z,9.39
2023-03-27T14:49:37.435Z,9.34
2023-03-27T14:52:09.143Z,9.33
2023-03-27T14:54:52.258Z,9.40
2023-03-27T14:57:23.110Z,9.33
2023-03-27T14:59:50.037Z,9.37
2023-03-27T15:02:22.990Z,9.34
2023-03-27T15:04:50.351Z,9.29
2023-03-27T15:07:19.965Z,9.23
2023-03-27T15:10:02.617Z,9.36
2023-03-27T15:12:29.554Z,9.36
2023-03-27T15:14:59.551Z,9.39
2023-03-27T15:17:30.841Z,9.34
2023-03-27T15:20:11.340Z,9.40
2023-03-27T15:22:44.520Z,9.31
2023-03-27T15:25:17.717Z,9.34
2023-03-27T15:27:52.866Z,9.33
2023-03-27T15:30:33.500Z,9.16
2023-03-27T15:33:02.322Z,9.18
2023-03-27T15:35:35.575Z,9.23
2023-03-27T15:38:05.018Z,9.29
2023-03-27T15:40:42.955Z,9.31
2023-03-27T15:43:12.716Z,9.27
2023-03-27T15:46:00.055Z,9.27
2023-03-27T15:48:30.351Z,9.27
2023-03-27T15:51:05.373Z,8.98
2023-03-27T15:53:40.114Z,8.88
2023-03-27T15:56:12.978Z,8.87
2023-03-27T15:58:53.855Z,8.92
2023-03-27T16:01:41.292Z,8.93
2023-03-27T16:04:16.631Z,8.86
2023-03-27T16:06:46.849Z,8.79
2023-03-27T16:09:24.396Z,8.83
2023-03-27T16:11:54.579Z,8.76
2023-03-27T16:14:30.492Z,8.57
2023-03-27T16:17:11.668Z,8.47
2023-03-27T16:20:24.710Z,8.49
2023-03-27T16:22:52.782Z,8.47
2023-03-27T16:25:19.933Z,8.42
2023-03-27T16:28:11.434Z,8.32
2023-03-27T16:30:41.146Z,8.44
2023-03-27T16:33:21.647Z,8.45
2023-03-27T16:35:49.735Z,8.51
2023-03-27T16:38:18.193Z,8.32
2023-03-27T16:40:45.839Z,8.42
2023-03-27T16:43:12.696Z,8.36
2023-03-27T16:45:41.369Z,8.38
2023-03-27T16:48:08.693Z,8.25
2023-03-27T16:50:35.707Z,8.28
2023-03-27T16:53:04.179Z,8.14
2023-03-27T16:55:31.249Z,8.15
2023-03-27T16:57:58.348Z,8.18
2023-03-27T17:00:26.793Z,8.14
2023-03-27T17:03:00.317Z,8.16
2023-03-27T17:05:29.414Z,8.00
2023-03-27T17:07:56.314Z,7.95
2023-03-27T17:10:23.719Z,8.07
2023-03-27T17:12:53.945Z,8.08
2023-03-27T17:15:20.971Z,7.98
2023-03-27T17:17:49.024Z,8.00
2023-03-27T17:20:16.425Z,7.82
2023-03-27T17:22:45.320Z,7.70
2023-03-27T17:25:13.260Z,7.64
2023-03-27T17:27:40.765Z,7.81
2023-03-27T17:30:08.468Z,7.80
2023-03-27T17:32:36.110Z,7.80
2023-03-27T17:35:05.104Z,7.70
2023-03-27T17:37:34.068Z,7.66
2023-03-27T17:40:01.192Z,7.65
2023-03-27T17:42:28.811Z,7.60
2023-03-27T17:44:56.086Z,7.56
2023-03-27T17:47:24.013Z,7.66
2023-03-27T17:49:53.340Z,7.70
2023-03-27T17:52:23.458Z,7.72
2023-03-27T17:54:50.818Z,7.72
2023-03-27T17:57:18.518Z,7.72
2023-03-27T17:59:46.517Z,7.59
2023-03-27T18:02:19.798Z,7.53
2023-03-27T18:04:56.566Z,7.44
2023-03-27T18:07:24.716Z,7.36
2023-03-27T18:09:52.830Z,7.32
2023-03-27T18:12:20.173Z,7.26
2023-03-27T18:14:47.525Z,7.36
2023-03-27T18:17:15.915Z,7.27
2023-03-27T18:19:45.230Z,7.24
2023-03-27T18:22:12.749Z,7.20
2023-03-27T18:24:40.519Z,7.15
2023-03-27T18:27:07.885Z,7.23
2023-03-27T18:29:35.694Z,7.20
2023-03-27T18:32:04.943Z,7.10
2023-03-27T18:34:33.066Z,7.11
2023-03-27T18:37:01.595Z,7.17
2023-03-27T18:39:29.582Z,7.17
2023-03-27T18:42:01.992Z,7.16
2023-03-27T18:44:29.762Z,7.15
2023-03-27T18:46:57.678Z,7.03
2023-03-27T18:49:25.740Z,6.97
2023-03-27T18:51:53.343Z,6.90
2023-03-27T18:54:21.377Z,6.91
2023-03-27T18:56:49.374Z,6.97
2023-03-27T18:59:17.237Z,6.86
2023-03-27T19:01:44.598Z,6.83
2023-03-27T19:04:15.049Z,6.85
2023-03-27T19:06:44.275Z,6.78
2023-03-27T19:09:12.063Z,6.67
2023-03-27T19:11:39.939Z,6.75
2023-03-27T19:14:08.620Z,6.62
2023-03-27T19:16:37.980Z,6.74
2023-03-27T19:19:05.135Z,6.64
2023-03-27T19:21:35.803Z,6.71
2023-03-27T19:24:03.032Z,6.72
2023-03-27T19:26:30.581Z,6.69
2023-03-27T19:28:58.448Z,6.61
2023-03-27T19:31:27.976Z,6.58
2023-03-27T19:33:58.405Z,6.53
2023-03-27T19:36:26.390Z,6.47
2023-03-27T19:38:54.374Z,6.45
2023-03-27T19:41:22.179Z,6.37
2023-03-27T19:43:49.834Z,6.39
2023-03-27T19:46:18.075Z,6.34
2023-03-27T19:48:47.955Z,6.32
2023-03-27T19:51:16.034Z,6.44
2023-03-27T19:53:43.854Z,6.40
2023-03-27T19:56:12.161Z,6.35
2023-03-27T19:58:39.900Z,6.39
2023-03-27T20:01:07.652Z,6.27
2023-03-27T20:03:38.854Z,6.33
2023-03-27T20:06:14.693Z,6.26
2023-03-27T20:08:42.848Z,6.23
2023-03-27T20:11:11.185Z,6.25
2023-03-27T20:13:53.199Z,6.22
2023-03-27T20:16:26.675Z,6.04
2023-03-27T20:19:04.195Z,6.15
2023-03-27T20:21:40.260Z,6.23
2023-03-27T20:24:10.316Z,6.23
2023-03-27T20:26:42.645Z,6.17
2023-03-27T20:29:14.042Z,6.11
2023-03-27T20:31:41.446Z,6.09
2023-03-27T20:34:09.245Z,6.02
2023-03-27T20:36:39.469Z,6.06
2023-03-27T20:39:07.892Z,6.10
2023-03-27T20:41:39.355Z,6.03
2023-03-27T20:44:16.447Z,6.01
2023-03-27T20:46:51.903Z,5.94
2023-03-27T20:51:59.884Z,5.83
2023-03-27T20:54:27.496Z,5.95
2023-03-27T20:56:54.335Z,6.00
2023-03-27T20:59:21.691Z,5.95
2023-03-27T21:01:48.521Z,5.90
2023-03-27T21:04:15.413Z,5.89
2023-03-27T21:06:42.818Z,5.85
2023-03-27T21:09:10.127Z,5.92
2023-03-27T21:11:36.954Z,5.93
2023-03-27T21:14:03.690Z,5.87
2023-03-27T21:16:30.722Z,5.89
2023-03-27T21:18:57.550Z,5.83
2023-03-27T21:21:24.396Z,5.83
2023-03-27T21:23:53.886Z,5.78
2023-03-27T21:26:20.918Z,5.71
2023-03-27T21:28:51.621Z,5.71
2023-03-27T21:31:19.713Z,5.77
2023-03-27T21:33:47.164Z,5.76
2023-03-27T21:36:14.142Z,5.75
2023-03-27T21:38:40.963Z,5.74
2023-03-27T21:41:07.995Z,5.75
2023-03-27T21:43:34.902Z,5.73
2023-03-27T21:46:03.710Z,5.63
2023-03-27T21:48:31.355Z,5.70
2023-03-27T21:51:02.790Z,5.73
2023-03-27T21:53:29.724Z,5.74
2023-03-27T21:55:57.657Z,5.71
2023-03-27T21:58:25.281Z,5.67
2023-03-27T22:00:52.504Z,5.70
2023-03-27T22:03:19.264Z,5.68
2023-03-27T22:05:51.614Z,5.64
2023-03-27T22:08:28.157Z,5.55
2023-03-27T22:11:01.545Z,5.53
2023-03-27T22:13:28.329Z,5.48
2023-03-27T22:15:56.268Z,5.43
2023-03-27T22:18:24.008Z,5.38
2023-03-27T22:20:50.987Z,5.38
2023-03-27T22:23:17.761Z,5.32
2023-03-27T22:25:52.286Z,5.26
2023-03-27T22:28:19.363Z,5.25
2023-03-27T22:30:46.210Z,5.31
2023-03-27T22:33:12.928Z,5.31
2023-03-27T22:35:39.762Z,5.28
2023-03-27T22:38:06.681Z,5.27
2023-03-27T22:40:33.472Z,5.28
2023-03-27T22:43:00.413Z,5.26
2023-03-27T22:45:27.159Z,5.21
2023-03-27T22:47:54.039Z,5.20
2023-03-27T22:50:20.820Z,5.18
2023-03-27T22:52:47.604Z,5.18
2023-03-27T22:55:14.460Z,5.18
2023-03-27T22:57:41.216Z,5.16
2023-03-27T23:00:09.163Z,5.04
2023-03-27T23:02:36.014Z,5.12
2023-03-27T23:05:04.206Z,5.13
2023-03-27T23:07:31.740Z,5.12
2023-03-27T23:09:58.500Z,5.13
2023-03-27T23:12:25.264Z,5.14
2023-03-27T23:14:51.974Z,5.12
2023-03-27T23:17:18.803Z,5.11
2023-03-27T23:19:45.635Z,5.10
2023-03-27T23:22:12.417Z,5.11
2023-03-27T23:24:39.116Z,5.06
2023-03-27T23:27:08.398Z,5.09
2023-03-27T23:29:35.417Z,5.05
2023-03-27T23:32:02.271Z,5.04
2023-03-27T23:34:29.130Z,5.07
2023-03-27T23:36:55.874Z,5.05
2023-03-27T23:39:22.644Z,5.02
2023-03-27T23:41:49.413Z,4.97
2023-03-27T23:44:16.127Z,4.92
2023-03-27T23:46:42.899Z,4.94
2023-03-27T23:49:12.645Z,4.90
2023-03-27T23:51:39.366Z,4.87
2023-03-27T23:54:06.139Z,4.87
2023-03-27T23:56:32.910Z,4.87
2023-03-27T23:58:59.662Z,4.89
